Latest Coastal Weather Observations for Laverton

IDV60701

Issued at 9:22 pm EDT Wednesday 7 December 2022 (issued every 10 minutes, with the page automatically refreshed every 10 minutes)

About coastal observations | Map of coastal stations | Coastal observations for VIC | Marine services | Other Formats
Station Details ID: 087031 Name: LAVERTON RAAF Lat: -37.86 Lon: 144.76 Height: 20.1 m
Data from the previous 72 hours. | See also: Recent months at Laverton
Date/Time
EDT
Wind Sea
Height
m
Swell Vis
km
Cloud Weather Temp
°C
Press
MSL
hPa
Rain since
9am
mm
Dir  Spd
kts
Gust
kts
Height
m
Period
s
Dir
07/09:02pm WSW 15 25 - - - - 10 Partly cloudy - 13.1 1008.1 0.0
07/09:00pm WSW 14 23 - - - - 10 Cloudy Rain 13.1 1008.1 0.0
07/08:30pm WSW 16 26 - - - - 10 Partly cloudy - 13.3 1007.5 0.0
07/08:00pm WSW 16 28 - - - - 10 Partly cloudy - 13.1 1007.1 0.0
07/07:30pm WSW 21 31 - - - - 10 Partly cloudy - 13.6 1006.4 0.0
07/07:05pm WSW 18 28 - - - - 10 Partly cloudy - 17.1 1005.4 0.0
07/07:00pm WSW 17 26 - - - - 10 Partly cloudy - 17.3 1005.2 0.0
07/06:30pm WSW 17 27 - - - - 10 Partly cloudy - 18.7 1004.4 0.0
07/06:25pm WSW 15 27 - - - - 10 Partly cloudy - 19.3 1004.2 0.0
07/06:00pm WSW 15 22 - - - - 10 Partly cloudy - 19.3 1004.3 0.0
07/05:49pm WSW 15 25 - - - - 10 Partly cloudy - 19.1 1004.1 0.0
07/05:30pm SW 10 21 - - - - 10 Partly cloudy - 19.7 1004.3 0.0
07/05:00pm SSE 11 15 - - - - 10 Partly cloudy - 16.4 1004.5 0.0
07/04:30pm SSE 12 18 - - - - 10 Partly cloudy - 16.7 1004.6 0.0
07/04:00pm SSE 14 20 - - - - 10 Partly cloudy - 17.4 1004.4 0.0
07/03:30pm S 13 18 - - - - 10 Partly cloudy - 16.6 1004.6 0.0
07/03:00pm SSE 14 19 - - - - 10 Mostly cloudy - 17.6 1004.6 0.0
07/02:30pm SSE 13 20 - - - - 10 Partly cloudy - 17.8 1004.4 0.0
07/02:00pm SSE 12 17 - - - - 10 Partly cloudy - 17.8 1004.4 0.0
07/01:30pm SE 10 14 - - - - 10 Partly cloudy - 17.1 1004.6 0.0
07/01:00pm SSE 11 15 - - - - 10 Partly cloudy - 17.7 1004.4 0.0
07/12:30pm SSW 8 12 - - - - 10 Partly cloudy - 19.5 1004.3 0.0
07/12:00pm S 9 15 - - - - 10 Cloudy - 18.3 1004.7 0.0
07/11:30am S 10 14 - - - - 10 Partly cloudy - 18.5 1004.7 0.0
07/11:00am SSW 8 13 - - - - 10 Partly cloudy - 19.0 1004.4 0.0
07/10:30am SW 7 9 - - - - 10 Partly cloudy - 18.1 1004.3 0.0
07/10:00am SSW 6 9 - - - - 10 Partly cloudy - 17.2 1004.5 0.0
07/09:30am SW 5 7 - - - - 10 Cloudy - 15.9 1004.5 0.0
07/09:00am SSW 5 7 - - - - 10 Cloudy - 15.5 1004.5 0.0
07/08:30am S 3 4 - - - - 10 Cloudy - 15.1 1004.5 0.0
07/08:00am SE 3 4 - - - - 10 Cloudy - 14.7 1004.2 0.0
07/07:30am E 1 4 - - - - 10 Partly cloudy - 14.6 1004.0 0.0
07/07:00am CALM 0 0 - - - - 10 - - 13.0 1003.9 0.0
07/06:30am E 2 3 - - - - 10 - - 11.2 1003.8 0.0
07/06:00am E 4 5 - - - - 10 Mostly clear - 10.9 1003.9 0.0
07/05:30am E 4 5 - - - - 10 - - 11.3 1003.9 0.0
07/05:00am E 4 5 - - - - 10 Partly cloudy - 12.0 1003.7 0.0
07/04:30am E 5 6 - - - - 10 Cloudy - 12.7 1003.9 0.0
07/04:00am E 4 5 - - - - 10 Cloudy - 12.7 1004.2 0.0
07/03:30am E 4 4 - - - - 10 Cloudy - 12.9 1004.4 0.0
07/03:00am CALM 0 0 - - - - 10 Cloudy - 12.9 1004.7 0.0
07/02:30am CALM 0 0 - - - - 10 - - 13.1 1005.2 0.0
07/02:00am E 3 4 - - - - 10 - - 13.3 1005.5 0.0
07/01:30am E 3 5 - - - - 10 - - 13.3 1005.8 0.0
07/01:00am ESE 5 7 - - - - 10 - - 13.7 1006.1 0.0
07/12:30am ESE 5 8 - - - - 10 - - 14.1 1006.3 0.0
07/12:00am ESE 6 8 - - - - 10 Cloudy - 14.1 1006.6 0.0
 
Date/Time
EDT
Wind Sea
Height
m
Swell Vis
km
Cloud Weather Temp
°C
Press
MSL
hPa
Rain since
9am
mm
Dir  Spd
kts
Gust
kts
Height
m
Period
s
Dir
06/11:30pm SE 6 9 - - - - 10 - - 14.0 1007.1 0.0
06/11:00pm SE 7 9 - - - - 10 - - 14.3 1007.3 0.0
06/10:30pm SE 7 10 - - - - 10 - - 14.5 1007.4 0.0
06/10:00pm SE 7 11 - - - - 10 - - 15.1 1007.7 0.0
06/09:30pm SE 7 12 - - - - 10 - - 15.5 1007.7 0.0
06/09:00pm SE 6 8 - - - - 10 Cloudy - 15.8 1007.5 0.0
06/08:30pm SE 7 12 - - - - 10 - - 16.2 1007.3 0.0
06/08:00pm SE 9 12 - - - - 10 - - 16.5 1007.5 0.0
06/07:30pm SE 9 12 - - - - 10 - - 17.4 1007.5 0.0
06/07:00pm SE 9 13 - - - - 10 - - 18.0 1007.4 0.0
06/06:30pm SE 11 15 - - - - 10 - - 18.3 1007.5 0.0
06/06:00pm SSE 9 13 - - - - 10 - - 18.9 1007.6 0.0
06/05:30pm SSE 11 16 - - - - 10 - - 19.1 1007.7 0.0
06/05:00pm SSE 10 14 - - - - 10 - - 19.5 1008.2 0.0
06/04:30pm SSE 9 14 - - - - 10 - - 19.4 1008.6 0.0
06/04:00pm SSE 8 11 - - - - 10 - - 19.8 1008.8 0.0
06/03:30pm SSE 10 13 - - - - 10 - - 19.5 1009.0 0.0
06/03:00pm SE 9 17 - - - - 10 - - 20.0 1009.1 0.0
06/02:30pm SE 10 14 - - - - 10 - - 19.2 1009.4 0.0
06/02:00pm SSE 9 13 - - - - 10 Partly cloudy - 19.9 1009.7 0.0
06/01:30pm SE 8 11 - - - - 10 Partly cloudy - 19.6 1010.2 0.0
06/01:00pm SSE 11 14 - - - - 10 Partly cloudy - 18.9 1010.6 0.0
06/12:30pm SE 9 13 - - - - 10 Partly cloudy - 18.7 1011.0 0.0
06/12:00pm SSE 9 13 - - - - 10 Mostly cloudy - 18.4 1011.2 0.0
06/11:30am SSE 8 13 - - - - 10 Partly cloudy - 18.1 1011.2 0.0
06/11:00am SSE 7 11 - - - - 10 Cloudy - 16.9 1011.3 0.0
06/10:30am SE 7 10 - - - - 10 Partly cloudy - 16.4 1011.6 0.0
06/10:00am ESE 7 11 - - - - 10 Partly cloudy - 15.5 1011.9 0.0
06/09:30am E 9 15 - - - - 10 Partly cloudy - 15.2 1012.1 0.0
06/09:22am ESE 11 18 - - - - 10 Partly cloudy - 14.6 1012.3 0.0
06/09:01am ESE 10 15 - - - - 10 Partly cloudy - 14.4 1012.3 0.0
06/09:00am ESE 9 15 - - - - 10 Cloudy - 14.4 1012.3 2.4
06/08:30am ESE 10 15 - - - - 10 Partly cloudy - 14.1 1012.1 2.4
06/08:00am ESE 7 11 - - - - 10 Partly cloudy - 13.8 1012.0 2.4
06/07:30am SW 5 7 - - - - 10 Partly cloudy - 13.5 1011.7 2.4
06/07:14am SW 4 5 - - - - 10 Partly cloudy - 13.5 1011.5 2.4
06/07:13am SW 4 5 - - - - 10 Partly cloudy - 13.5 1011.5 2.4
06/07:00am SW 5 8 - - - - 5 Partly cloudy - 13.1 1011.5 2.2
06/06:54am SW 7 10 - - - - 4 Partly cloudy - 12.8 1011.5 2.2
06/06:50am SW 7 10 - - - - 6 Partly cloudy - 12.8 1011.5 2.0
06/06:30am WSW 6 9 - - - - 10 Partly cloudy - 13.0 1011.3 1.2
06/06:05am W 5 7 - - - - 10 Partly cloudy - 12.8 1011.3 1.2
06/06:00am W 6 7 - - - - 10 Cloudy - 12.7 1011.3 1.2
06/05:30am W 8 11 - - - - 10 Partly cloudy - 12.7 1011.1 1.2
06/05:00am SW 6 8 - - - - 10 Partly cloudy - 12.8 1011.2 1.2
06/04:59am SW 6 9 - - - - 10 Partly cloudy - 12.8 1011.2 1.2
06/04:52am WSW 6 9 - - - - 10 Partly cloudy - 12.9 1011.1 1.2
06/04:30am SW 8 13 - - - - 10 Partly cloudy - 13.6 1011.2 1.2
06/04:23am SW 11 14 - - - - 8 Partly cloudy - 13.5 1011.2 1.2
06/04:04am SW 9 13 - - - - 7 Cloudy - 13.6 1011.2 0.8
06/04:00am SW 9 13 - - - - 10 Partly cloudy - 13.6 1011.2 0.8
06/03:30am SW 11 14 - - - - 6 Cloudy - 13.8 1011.2 0.4
06/03:28am SW 11 16 - - - - 7 Cloudy - 13.9 1011.2 0.4
06/03:00am SSW 11 16 - - - - 10 Mostly cloudy - 14.1 1011.4 0.4
06/02:30am SW 12 17 - - - - 10 Partly cloudy - 13.7 1011.4 0.4
06/02:00am SW 13 19 - - - - 10 Partly cloudy - 13.4 1011.7 0.4
06/01:30am SW 12 18 - - - - 10 Cloudy - 13.2 1012.0 0.4
06/01:00am SW 13 17 - - - - 10 Cloudy - 13.2 1012.3 0.4
06/12:57am SW 12 17 - - - - 10 Cloudy - 13.2 1012.3 0.4
06/12:30am SSW 13 21 - - - - 10 Cloudy - 13.3 1012.8 0.4
06/12:00am SSW 15 21 - - - - 10 Cloudy - 13.3 1013.1 0.4
 
Date/Time
EDT
Wind Sea
Height
m
Swell Vis
km
Cloud Weather Temp
°C
Press
MSL
hPa
Rain since
9am
mm
Dir  Spd
kts
Gust
kts
Height
m
Period
s
Dir
05/11:30pm SSW 14 21 - - - - 10 Cloudy - 13.5 1013.3 0.4
05/11:00pm SSW 14 21 - - - - 10 Cloudy - 13.5 1013.4 0.4
05/10:30pm SSW 15 24 - - - - 10 Cloudy - 13.7 1013.7 0.4
05/10:00pm SSW 17 25 - - - - 10 Cloudy - 13.9 1013.7 0.4
05/09:32pm SW 17 27 - - - - 10 Cloudy - 14.0 1013.4 0.4
05/09:30pm SW 18 27 - - - - 10 Cloudy - 14.0 1013.4 0.4
05/09:04pm SSW 16 26 - - - - 10 Cloudy - 14.3 1013.5 0.4
05/09:00pm SSW 18 27 - - - - 10 Cloudy - 14.3 1013.4 0.4
05/08:30pm SW 16 27 - - - - 10 Cloudy - 14.4 1013.3 0.4
05/08:11pm SW 18 28 - - - - 10 Partly cloudy - 14.7 1013.1 0.4
05/08:00pm SW 16 24 - - - - 10 Partly cloudy - 14.7 1013.0 0.4
05/07:34pm SW 15 25 - - - - 10 Partly cloudy - 15.0 1012.8 0.4
05/07:30pm SW 17 25 - - - - 10 Partly cloudy - 15.0 1012.8 0.4
05/07:17pm SW 16 26 - - - - 10 Partly cloudy - 15.0 1012.6 0.4
05/07:00pm SSW 21 29 - - - - 10 Partly cloudy - 15.0 1012.4 0.4
05/06:30pm SW 16 27 - - - - 10 Partly cloudy - 15.4 1012.2 0.4
05/06:00pm SW 18 29 - - - - 10 Cloudy - 15.6 1012.0 0.4
05/05:30pm SW 19 29 - - - - 10 Partly cloudy - 15.8 1011.9 0.4
05/05:00pm SSW 20 31 - - - - 10 Partly cloudy - 16.5 1011.8 0.4
05/04:46pm SSW 19 29 - - - - 10 Partly cloudy - 16.7 1011.8 0.4
05/04:30pm SSW 19 27 - - - - 10 Partly cloudy - 16.7 1011.8 0.4
05/04:02pm SW 20 30 - - - - 10 Partly cloudy - 17.0 1011.8 0.2
05/04:00pm SW 20 29 - - - - 10 Partly cloudy - 16.9 1011.8 0.2
05/03:42pm SSW 21 31 - - - - 10 Partly cloudy - 17.2 1011.7 0.2
05/03:30pm SSW 21 29 - - - - 10 Partly cloudy - 17.5 1011.7 0.2
05/03:00pm SSW 19 29 - - - - 10 Mostly cloudy - 16.5 1011.8 0.2
05/02:45pm SSW 17 27 - - - - 10 Partly cloudy - 15.6 1011.8 0.2
05/02:30pm SSW 16 25 - - - - 10 Partly cloudy - 16.4 1011.9 0.2
05/02:02pm SSW 17 27 - - - - 10 Partly cloudy - 16.4 1011.9 0.2
05/02:00pm SSW 18 27 - - - - 10 Partly cloudy - 16.3 1011.9 0.2
05/01:30pm SSW 17 29 - - - - 10 Partly cloudy - 17.8 1011.7 0.2
05/01:25pm SW 17 29 - - - - 10 Partly cloudy - 17.6 1011.8 0.2
05/01:00pm SSW 17 24 - - - - 10 Partly cloudy - 17.2 1011.8 0.2
05/12:47pm SW 17 27 - - - - 10 Partly cloudy - 17.2 1011.8 0.2
05/12:30pm SW 18 26 - - - - 10 Partly cloudy - 17.5 1011.7 0.2
05/12:00pm SSW 17 26 - - - - 10 Cloudy - 17.8 1011.3 0.2
05/11:56am SSW 16 26 - - - - 10 Partly cloudy - 17.5 1011.3 0.2
05/11:30am SSW 19 25 - - - - 10 Partly cloudy - 16.9 1011.0 0.2
05/11:00am SSW 18 25 - - - - 10 Partly cloudy - 16.2 1010.9 0.2
05/10:39am SSW 15 25 - - - - 10 Partly cloudy - 16.0 1010.7 0.2
05/10:30am SSW 15 23 - - - - 10 Partly cloudy - 15.2 1010.7 0.2
05/10:22am SSW 17 27 - - - - 10 Partly cloudy - 15.2 1010.5 0.2
05/10:00am SSW 16 24 - - - - 10 Partly cloudy - 15.4 1010.3 0.2
05/09:37am SW 13 19 - - - - 10 Partly cloudy - 14.7 1010.2 0.2
05/09:30am SW 13 19 - - - - 10 Partly cloudy - 14.4 1010.2 0.2
05/09:11am SSW 15 23 - - - - 7 Partly cloudy - 14.6 1010.1 0.0
05/09:00am SW 17 26 - - - - 10 Cloudy - 15.7 1010.0 0.0
05/08:55am SW 16 26 - - - - 10 Partly cloudy - 16.2 1009.9 0.0
05/08:30am SSW 15 24 - - - - 10 Partly cloudy - 15.8 1009.8 0.0
05/08:00am SW 15 23 - - - - 10 Partly cloudy - 15.3 1009.6 0.0
05/07:30am SW 11 22 - - - - 10 Partly cloudy - 15.8 1009.3 0.0
05/07:00am WSW 13 17 - - - - 10 Partly cloudy - 16.4 1008.5 0.0
05/06:30am WSW 9 16 - - - - 10 Partly cloudy - 16.5 1008.6 0.0
05/06:00am WSW 11 17 - - - - 10 Mostly cloudy - 16.7 1008.0 0.0
05/05:30am W 13 19 - - - - 10 Partly cloudy - 16.8 1007.7 0.0
05/05:00am WSW 11 19 - - - - 10 Partly cloudy - 16.7 1007.0 0.0
05/04:30am W 13 18 - - - - 10 Cloudy - 17.1 1007.4 0.0
05/04:00am W 13 19 - - - - 10 Cloudy - 17.5 1007.1 0.0
05/03:30am WSW 13 18 - - - - 10 Cloudy - 17.5 1006.6 0.0
05/03:00am WSW 10 16 - - - - 10 Cloudy - 17.9 1006.5 0.0
05/02:30am WSW 9 15 - - - - 10 - - 18.3 1006.4 0.0
05/02:00am W 11 16 - - - - 10 - - 19.2 1006.4 0.0
05/01:30am WSW 13 17 - - - - 10 - - 19.6 1006.5 0.0
05/01:00am SW 11 17 - - - - 10 - - 20.9 1006.7 0.0
05/12:30am SW 8 12 - - - - 10 - - 21.8 1006.3 0.0
05/12:00am SW 15 20 - - - - 10 Cloudy - 21.8 1005.9 0.0
 
Date/Time
EDT
Wind Sea
Height
m
Swell Vis
km
Cloud Weather Temp
°C
Press
MSL
hPa
Rain since
9am
mm
Dir  Spd
kts
Gust
kts
Height
m
Period
s
Dir
04/11:30pm W 12 23 - - - - 10 - - 25.6 1005.0 0.0
04/11:29pm W 11 23 - - - - 10 - - 26.7 1004.9 0.0
04/11:00pm NW 9 11 - - - - 10 - - 26.0 1004.5 0.0
04/10:30pm NNW 9 13 - - - - 10 - - 28.0 1004.3 0.0
04/10:00pm NNE 10 13 - - - - 10 - - 28.5 1004.1 0.0
04/09:30pm NNE 7 10 - - - - 10 - - 28.5 1004.3 0.0

Other formats

Comma delimited format used in spreadsheet applications
http://www.bom.gov.au/fwo/IDV60701/IDV60701.94865.axf

JavaScript Object Notation format (JSON) in row-major order
http://www.bom.gov.au/fwo/IDV60701/IDV60701.94865.json

Data quality

Most of these data are generated automatically and are frequently updated. Quality checks on data are not normally performed. It is possible for incorrect values to appear. Refer to information at About Latest Weather Observations and please check the disclaimer before using these data.